sensor_id;sensor_type;location;lat;lon;timestamp;P1;durP1;ratioP1;P2;durP2;ratioP2
42006;SDS011;27696;42.704;23.304;2023-07-31T00:01:51;3.20;;;2.70;;
42006;SDS011;27696;42.704;23.304;2023-07-31T00:04:17;3.28;;;3.00;;
42006;SDS011;27696;42.704;23.304;2023-07-31T00:06:42;4.95;;;3.17;;
42006;SDS011;27696;42.704;23.304;2023-07-31T00:09:08;3.40;;;3.20;;
42006;SDS011;27696;42.704;23.304;2023-07-31T00:11:33;6.15;;;3.30;;
42006;SDS011;27696;42.704;23.304;2023-07-31T00:13:58;3.25;;;2.83;;
42006;SDS011;27696;42.704;23.304;2023-07-31T00:16:24;3.13;;;2.83;;
42006;SDS011;27696;42.704;23.304;2023-07-31T00:18:49;3.58;;;3.28;;
42006;SDS011;27696;42.704;23.304;2023-07-31T00:21:15;3.25;;;2.95;;
42006;SDS011;27696;42.704;23.304;2023-07-31T00:23:40;3.30;;;3.00;;
42006;SDS011;27696;42.704;23.304;2023-07-31T00:26:06;3.33;;;3.08;;
42006;SDS011;27696;42.704;23.304;2023-07-31T00:28:31;3.83;;;3.20;;
42006;SDS011;27696;42.704;23.304;2023-07-31T00:30:56;4.97;;;3.70;;
42006;SDS011;27696;42.704;23.304;2023-07-31T00:33:22;6.03;;;3.40;;
42006;SDS011;27696;42.704;23.304;2023-07-31T00:35:48;5.63;;;3.45;;
42006;SDS011;27696;42.704;23.304;2023-07-31T00:38:13;3.92;;;3.60;;
42006;SDS011;27696;42.704;23.304;2023-07-31T00:40:39;4.20;;;3.83;;
42006;SDS011;27696;42.704;23.304;2023-07-31T00:43:04;4.20;;;3.80;;
42006;SDS011;27696;42.704;23.304;2023-07-31T00:45:30;4.47;;;4.07;;
42006;SDS011;27696;42.704;23.304;2023-07-31T00:47:55;5.28;;;4.78;;
42006;SDS011;27696;42.704;23.304;2023-07-31T00:50:24;5.75;;;4.57;;
42006;SDS011;27696;42.704;23.304;2023-07-31T00:52:50;5.55;;;5.07;;
42006;SDS011;27696;42.704;23.304;2023-07-31T00:55:15;5.90;;;5.10;;
42006;SDS011;27696;42.704;23.304;2023-07-31T00:57:41;7.25;;;6.65;;
42006;SDS011;27696;42.704;23.304;2023-07-31T01:00:06;8.68;;;7.97;;
42006;SDS011;27696;42.704;23.304;2023-07-31T01:02:32;8.65;;;7.85;;
42006;SDS011;27696;42.704;23.304;2023-07-31T01:04:58;9.07;;;8.27;;
42006;SDS011;27696;42.704;23.304;2023-07-31T01:12:45;10.40;;;8.93;;
42006;SDS011;27696;42.704;23.304;2023-07-31T01:15:11;9.55;;;8.65;;
42006;SDS011;27696;42.704;23.304;2023-07-31T01:17:37;11.10;;;10.10;;
42006;SDS011;27696;42.704;23.304;2023-07-31T01:20:04;10.73;;;9.73;;
42006;SDS011;27696;42.704;23.304;2023-07-31T01:27:57;12.05;;;10.95;;
42006;SDS011;27696;42.704;23.304;2023-07-31T01:30:25;12.77;;;11.68;;
42006;SDS011;27696;42.704;23.304;2023-07-31T01:32:52;13.35;;;12.10;;
42006;SDS011;27696;42.704;23.304;2023-07-31T01:35:19;14.13;;;12.82;;
42006;SDS011;27696;42.704;23.304;2023-07-31T01:37:45;13.85;;;12.55;;
42006;SDS011;27696;42.704;23.304;2023-07-31T01:40:10;15.77;;;14.35;;
42006;SDS011;27696;42.704;23.304;2023-07-31T01:42:36;15.85;;;14.27;;
42006;SDS011;27696;42.704;23.304;2023-07-31T01:45:01;16.25;;;14.85;;
42006;SDS011;27696;42.704;23.304;2023-07-31T01:47:27;17.52;;;15.73;;
42006;SDS011;27696;42.704;23.304;2023-07-31T01:49:52;18.02;;;16.13;;
42006;SDS011;27696;42.704;23.304;2023-07-31T01:52:17;17.98;;;16.38;;
42006;SDS011;27696;42.704;23.304;2023-07-31T01:54:44;18.55;;;16.85;;
42006;SDS011;27696;42.704;23.304;2023-07-31T01:57:09;19.15;;;17.40;;
42006;SDS011;27696;42.704;23.304;2023-07-31T01:59:35;21.17;;;19.20;;
42006;SDS011;27696;42.704;23.304;2023-07-31T02:02:00;21.02;;;18.92;;
42006;SDS011;27696;42.704;23.304;2023-07-31T02:04:26;21.25;;;19.15;;
42006;SDS011;27696;42.704;23.304;2023-07-31T02:06:52;20.80;;;18.90;;
42006;SDS011;27696;42.704;23.304;2023-07-31T02:09:18;21.48;;;19.35;;
42006;SDS011;27696;42.704;23.304;2023-07-31T02:11:43;21.15;;;19.05;;
42006;SDS011;27696;42.704;23.304;2023-07-31T02:14:08;21.00;;;19.10;;
42006;SDS011;27696;42.704;23.304;2023-07-31T02:16:34;22.23;;;20.15;;
42006;SDS011;27696;42.704;23.304;2023-07-31T02:18:59;21.27;;;19.38;;
42006;SDS011;27696;42.704;23.304;2023-07-31T02:21:25;22.77;;;20.67;;
42006;SDS011;27696;42.704;23.304;2023-07-31T02:23:50;22.17;;;20.17;;
42006;SDS011;27696;42.704;23.304;2023-07-31T02:26:15;21.85;;;19.95;;
42006;SDS011;27696;42.704;23.304;2023-07-31T02:28:41;21.83;;;19.73;;
42006;SDS011;27696;42.704;23.304;2023-07-31T02:31:08;22.90;;;20.67;;
42006;SDS011;27696;42.704;23.304;2023-07-31T02:33:33;23.83;;;21.73;;
42006;SDS011;27696;42.704;23.304;2023-07-31T02:35:59;23.35;;;21.17;;
42006;SDS011;27696;42.704;23.304;2023-07-31T02:38:24;23.33;;;21.17;;
42006;SDS011;27696;42.704;23.304;2023-07-31T02:40:49;22.60;;;20.58;;
42006;SDS011;27696;42.704;23.304;2023-07-31T02:43:15;22.55;;;20.50;;
42006;SDS011;27696;42.704;23.304;2023-07-31T02:45:40;23.80;;;20.95;;
42006;SDS011;27696;42.704;23.304;2023-07-31T02:48:05;23.77;;;21.38;;
42006;SDS011;27696;42.704;23.304;2023-07-31T02:50:31;24.60;;;22.10;;
42006;SDS011;27696;42.704;23.304;2023-07-31T02:52:57;22.40;;;20.15;;
42006;SDS011;27696;42.704;23.304;2023-07-31T02:55:22;24.02;;;21.83;;
42006;SDS011;27696;42.704;23.304;2023-07-31T02:57:48;23.40;;;21.40;;
42006;SDS011;27696;42.704;23.304;2023-07-31T03:00:13;21.65;;;19.70;;
42006;SDS011;27696;42.704;23.304;2023-07-31T03:02:38;23.67;;;21.58;;
42006;SDS011;27696;42.704;23.304;2023-07-31T03:05:04;22.95;;;20.85;;
42006;SDS011;27696;42.704;23.304;2023-07-31T03:07:29;23.35;;;21.25;;
42006;SDS011;27696;42.704;23.304;2023-07-31T03:09:55;22.60;;;20.50;;
42006;SDS011;27696;42.704;23.304;2023-07-31T03:12:21;23.77;;;21.67;;
42006;SDS011;27696;42.704;23.304;2023-07-31T03:14:46;24.25;;;22.00;;
42006;SDS011;27696;42.704;23.304;2023-07-31T03:17:11;23.63;;;21.52;;
42006;SDS011;27696;42.704;23.304;2023-07-31T03:19:37;25.20;;;23.00;;
42006;SDS011;27696;42.704;23.304;2023-07-31T03:22:02;24.33;;;22.02;;
42006;SDS011;27696;42.704;23.304;2023-07-31T03:24:28;24.85;;;22.65;;
42006;SDS011;27696;42.704;23.304;2023-07-31T03:26:53;25.67;;;23.13;;
42006;SDS011;27696;42.704;23.304;2023-07-31T03:29:19;26.20;;;23.67;;
42006;SDS011;27696;42.704;23.304;2023-07-31T03:31:45;25.40;;;23.05;;
42006;SDS011;27696;42.704;23.304;2023-07-31T03:34:10;24.33;;;22.13;;
42006;SDS011;27696;42.704;23.304;2023-07-31T03:36:36;24.67;;;22.38;;
42006;SDS011;27696;42.704;23.304;2023-07-31T03:39:01;24.13;;;21.92;;
42006;SDS011;27696;42.704;23.304;2023-07-31T03:41:27;24.40;;;22.15;;
42006;SDS011;27696;42.704;23.304;2023-07-31T03:43:52;23.02;;;20.73;;
42006;SDS011;27696;42.704;23.304;2023-07-31T03:46:17;25.02;;;22.65;;
42006;SDS011;27696;42.704;23.304;2023-07-31T03:48:43;24.77;;;22.25;;
42006;SDS011;27696;42.704;23.304;2023-07-31T03:51:08;22.73;;;20.52;;
42006;SDS011;27696;42.704;23.304;2023-07-31T03:53:34;23.25;;;20.95;;
42006;SDS011;27696;42.704;23.304;2023-07-31T03:55:59;24.58;;;22.13;;
42006;SDS011;27696;42.704;23.304;2023-07-31T03:58:24;25.00;;;22.63;;
42006;SDS011;27696;42.704;23.304;2023-07-31T04:00:50;27.20;;;24.45;;
42006;SDS011;27696;42.704;23.304;2023-07-31T04:03:15;26.48;;;23.80;;
42006;SDS011;27696;42.704;23.304;2023-07-31T04:05:40;27.80;;;25.05;;
42006;SDS011;27696;42.704;23.304;2023-07-31T04:08:07;26.65;;;24.05;;
42006;SDS011;27696;42.704;23.304;2023-07-31T04:10:32;27.30;;;24.63;;
42006;SDS011;27696;42.704;23.304;2023-07-31T04:12:58;27.00;;;24.45;;
42006;SDS011;27696;42.704;23.304;2023-07-31T04:15:25;25.48;;;23.02;;
42006;SDS011;27696;42.704;23.304;2023-07-31T04:17:50;27.85;;;25.10;;
42006;SDS011;27696;42.704;23.304;2023-07-31T04:20:16;26.13;;;23.65;;
42006;SDS011;27696;42.704;23.304;2023-07-31T04:22:42;26.20;;;23.73;;
42006;SDS011;27696;42.704;23.304;2023-07-31T04:25:07;26.73;;;24.23;;
42006;SDS011;27696;42.704;23.304;2023-07-31T04:27:33;25.98;;;23.45;;
42006;SDS011;27696;42.704;23.304;2023-07-31T04:29:58;26.67;;;24.17;;
42006;SDS011;27696;42.704;23.304;2023-07-31T04:32:23;26.02;;;23.40;;
42006;SDS011;27696;42.704;23.304;2023-07-31T04:34:49;25.95;;;23.55;;
42006;SDS011;27696;42.704;23.304;2023-07-31T04:37:14;26.30;;;23.85;;
42006;SDS011;27696;42.704;23.304;2023-07-31T04:39:39;26.02;;;23.50;;
42006;SDS011;27696;42.704;23.304;2023-07-31T04:42:05;25.08;;;22.60;;
42006;SDS011;27696;42.704;23.304;2023-07-31T04:44:30;25.88;;;23.13;;
42006;SDS011;27696;42.704;23.304;2023-07-31T04:46:56;24.95;;;22.55;;
42006;SDS011;27696;42.704;23.304;2023-07-31T04:49:21;25.92;;;23.42;;
42006;SDS011;27696;42.704;23.304;2023-07-31T04:51:47;25.83;;;23.40;;
42006;SDS011;27696;42.704;23.304;2023-07-31T04:54:12;25.10;;;22.70;;
42006;SDS011;27696;42.704;23.304;2023-07-31T04:56:40;25.88;;;23.42;;
42006;SDS011;27696;42.704;23.304;2023-07-31T04:59:06;24.65;;;22.25;;
42006;SDS011;27696;42.704;23.304;2023-07-31T05:01:31;24.05;;;21.67;;
42006;SDS011;27696;42.704;23.304;2023-07-31T05:03:57;23.30;;;20.58;;
42006;SDS011;27696;42.704;23.304;2023-07-31T05:06:22;22.50;;;20.30;;
42006;SDS011;27696;42.704;23.304;2023-07-31T05:08:47;21.88;;;19.88;;
42006;SDS011;27696;42.704;23.304;2023-07-31T05:11:13;22.17;;;20.17;;
42006;SDS011;27696;42.704;23.304;2023-07-31T05:13:38;21.42;;;19.52;;
42006;SDS011;27696;42.704;23.304;2023-07-31T05:16:04;21.30;;;19.40;;
42006;SDS011;27696;42.704;23.304;2023-07-31T05:18:29;20.40;;;18.25;;
42006;SDS011;27696;42.704;23.304;2023-07-31T05:20:55;21.45;;;19.48;;
42006;SDS011;27696;42.704;23.304;2023-07-31T05:23:20;19.27;;;17.58;;
42006;SDS011;27696;42.704;23.304;2023-07-31T05:25:45;19.23;;;17.50;;
42006;SDS011;27696;42.704;23.304;2023-07-31T05:28:11;18.88;;;16.98;;
42006;SDS011;27696;42.704;23.304;2023-07-31T05:30:37;18.95;;;17.25;;
42006;SDS011;27696;42.704;23.304;2023-07-31T05:33:02;19.88;;;18.17;;
42006;SDS011;27696;42.704;23.304;2023-07-31T05:35:28;16.67;;;15.27;;
42006;SDS011;27696;42.704;23.304;2023-07-31T05:37:53;18.45;;;16.85;;
42006;SDS011;27696;42.704;23.304;2023-07-31T05:40:19;15.52;;;14.18;;
42006;SDS011;27696;42.704;23.304;2023-07-31T05:42:44;14.15;;;12.85;;
42006;SDS011;27696;42.704;23.304;2023-07-31T05:45:10;14.90;;;13.43;;
42006;SDS011;27696;42.704;23.304;2023-07-31T05:47:35;14.30;;;12.85;;
42006;SDS011;27696;42.704;23.304;2023-07-31T05:50:01;14.02;;;12.63;;
42006;SDS011;27696;42.704;23.304;2023-07-31T05:52:26;13.10;;;11.90;;
42006;SDS011;27696;42.704;23.304;2023-07-31T05:54:52;10.80;;;9.70;;
42006;SDS011;27696;42.704;23.304;2023-07-31T05:57:17;11.85;;;10.77;;
42006;SDS011;27696;42.704;23.304;2023-07-31T05:59:43;11.57;;;10.40;;
42006;SDS011;27696;42.704;23.304;2023-07-31T06:02:08;9.63;;;8.82;;
42006;SDS011;27696;42.704;23.304;2023-07-31T06:04:34;9.70;;;8.80;;
42006;SDS011;27696;42.704;23.304;2023-07-31T06:06:59;10.35;;;9.07;;
42006;SDS011;27696;42.704;23.304;2023-07-31T06:09:25;9.35;;;8.45;;
42006;SDS011;27696;42.704;23.304;2023-07-31T06:11:50;9.80;;;8.90;;
42006;SDS011;27696;42.704;23.304;2023-07-31T06:14:16;8.02;;;7.30;;
42006;SDS011;27696;42.704;23.304;2023-07-31T06:16:41;8.18;;;7.38;;
42006;SDS011;27696;42.704;23.304;2023-07-31T06:19:07;7.53;;;6.82;;
42006;SDS011;27696;42.704;23.304;2023-07-31T06:21:32;8.45;;;6.10;;
42006;SDS011;27696;42.704;23.304;2023-07-31T06:23:58;6.78;;;6.28;;
42006;SDS011;27696;42.704;23.304;2023-07-31T06:26:23;7.10;;;6.47;;
42006;SDS011;27696;42.704;23.304;2023-07-31T06:28:49;6.90;;;6.20;;
42006;SDS011;27696;42.704;23.304;2023-07-31T06:31:14;6.35;;;5.80;;
42006;SDS011;27696;42.704;23.304;2023-07-31T06:33:40;8.43;;;6.15;;
42006;SDS011;27696;42.704;23.304;2023-07-31T06:36:05;6.88;;;6.28;;
42006;SDS011;27696;42.704;23.304;2023-07-31T06:38:31;6.47;;;5.72;;
42006;SDS011;27696;42.704;23.304;2023-07-31T06:40:56;9.43;;;5.60;;
42006;SDS011;27696;42.704;23.304;2023-07-31T06:43:21;6.03;;;5.50;;
42006;SDS011;27696;42.704;23.304;2023-07-31T06:45:47;9.23;;;5.60;;
42006;SDS011;27696;42.704;23.304;2023-07-31T06:48:15;5.50;;;5.00;;
42006;SDS011;27696;42.704;23.304;2023-07-31T06:50:41;5.40;;;4.90;;
42006;SDS011;27696;42.704;23.304;2023-07-31T06:53:06;10.18;;;5.10;;
42006;SDS011;27696;42.704;23.304;2023-07-31T06:55:31;5.00;;;4.50;;
42006;SDS011;27696;42.704;23.304;2023-07-31T06:57:57;6.22;;;4.88;;
42006;SDS011;27696;42.704;23.304;2023-07-31T07:00:22;4.93;;;4.53;;
42006;SDS011;27696;42.704;23.304;2023-07-31T07:02:48;5.20;;;4.65;;
42006;SDS011;27696;42.704;23.304;2023-07-31T07:05:14;7.22;;;4.78;;
42006;SDS011;27696;42.704;23.304;2023-07-31T07:07:40;7.50;;;4.93;;
42006;SDS011;27696;42.704;23.304;2023-07-31T07:10:06;4.50;;;4.10;;
42006;SDS011;27696;42.704;23.304;2023-07-31T07:12:32;5.32;;;4.47;;
42006;SDS011;27696;42.704;23.304;2023-07-31T07:14:58;5.63;;;3.85;;
42006;SDS011;27696;42.704;23.304;2023-07-31T07:17:24;4.68;;;4.28;;
42006;SDS011;27696;42.704;23.304;2023-07-31T07:19:50;5.07;;;4.10;;
42006;SDS011;27696;42.704;23.304;2023-07-31T07:22:15;3.90;;;3.60;;
42006;SDS011;27696;42.704;23.304;2023-07-31T07:24:41;4.85;;;4.18;;
42006;SDS011;27696;42.704;23.304;2023-07-31T07:27:06;10.07;;;4.18;;
42006;SDS011;27696;42.704;23.304;2023-07-31T07:29:33;4.70;;;4.28;;
42006;SDS011;27696;42.704;23.304;2023-07-31T07:31:59;4.90;;;4.05;;
42006;SDS011;27696;42.704;23.304;2023-07-31T07:34:27;4.68;;;4.28;;
42006;SDS011;27696;42.704;23.304;2023-07-31T07:36:53;4.60;;;4.13;;
42006;SDS011;27696;42.704;23.304;2023-07-31T07:39:18;4.20;;;3.80;;
42006;SDS011;27696;42.704;23.304;2023-07-31T07:41:44;5.25;;;4.22;;
42006;SDS011;27696;42.704;23.304;2023-07-31T07:44:09;4.90;;;3.70;;
42006;SDS011;27696;42.704;23.304;2023-07-31T07:46:34;5.03;;;3.70;;
42006;SDS011;27696;42.704;23.304;2023-07-31T07:49:00;4.15;;;3.65;;
42006;SDS011;27696;42.704;23.304;2023-07-31T07:51:25;4.05;;;3.65;;
42006;SDS011;27696;42.704;23.304;2023-07-31T07:53:51;4.15;;;3.75;;
42006;SDS011;27696;42.704;23.304;2023-07-31T07:56:16;4.03;;;3.67;;
42006;SDS011;27696;42.704;23.304;2023-07-31T07:58:42;5.25;;;3.85;;
42006;SDS011;27696;42.704;23.304;2023-07-31T08:01:07;4.65;;;3.88;;
42006;SDS011;27696;42.704;23.304;2023-07-31T08:03:33;5.75;;;3.88;;
42006;SDS011;27696;42.704;23.304;2023-07-31T08:05:58;4.65;;;4.25;;
42006;SDS011;27696;42.704;23.304;2023-07-31T08:08:24;4.45;;;4.05;;
42006;SDS011;27696;42.704;23.304;2023-07-31T08:10:50;5.45;;;3.80;;
42006;SDS011;27696;42.704;23.304;2023-07-31T08:13:15;5.47;;;3.53;;
42006;SDS011;27696;42.704;23.304;2023-07-31T08:15:41;4.80;;;4.00;;
42006;SDS011;27696;42.704;23.304;2023-07-31T08:18:07;5.10;;;3.80;;
42006;SDS011;27696;42.704;23.304;2023-07-31T08:20:32;4.72;;;3.53;;
42006;SDS011;27696;42.704;23.304;2023-07-31T08:22:58;3.88;;;3.50;;
42006;SDS011;27696;42.704;23.304;2023-07-31T08:25:23;5.10;;;4.60;;
42006;SDS011;27696;42.704;23.304;2023-07-31T08:27:49;4.10;;;3.70;;
42006;SDS011;27696;42.704;23.304;2023-07-31T08:30:17;5.57;;;3.70;;
42006;SDS011;27696;42.704;23.304;2023-07-31T08:32:43;3.60;;;3.28;;
42006;SDS011;27696;42.704;23.304;2023-07-31T08:35:09;4.10;;;3.70;;
42006;SDS011;27696;42.704;23.304;2023-07-31T08:37:34;6.82;;;4.22;;
42006;SDS011;27696;42.704;23.304;2023-07-31T08:40:00;5.22;;;4.32;;
42006;SDS011;27696;42.704;23.304;2023-07-31T08:42:25;4.00;;;3.70;;
42006;SDS011;27696;42.704;23.304;2023-07-31T08:44:51;4.55;;;3.67;;
42006;SDS011;27696;42.704;23.304;2023-07-31T08:47:17;4.75;;;3.38;;
42006;SDS011;27696;42.704;23.304;2023-07-31T08:49:44;3.60;;;3.30;;
42006;SDS011;27696;42.704;23.304;2023-07-31T08:52:11;4.65;;;3.50;;
42006;SDS011;27696;42.704;23.304;2023-07-31T08:54:36;4.60;;;3.35;;
42006;SDS011;27696;42.704;23.304;2023-07-31T08:57:02;3.90;;;3.05;;
42006;SDS011;27696;42.704;23.304;2023-07-31T08:59:29;3.55;;;3.28;;
42006;SDS011;27696;42.704;23.304;2023-07-31T09:01:56;4.32;;;3.03;;
42006;SDS011;27696;42.704;23.304;2023-07-31T09:04:23;6.07;;;3.25;;
42006;SDS011;27696;42.704;23.304;2023-07-31T09:06:48;3.67;;;2.97;;
42006;SDS011;27696;42.704;23.304;2023-07-31T09:09:14;5.38;;;3.10;;
42006;SDS011;27696;42.704;23.304;2023-07-31T09:11:40;5.13;;;3.38;;
42006;SDS011;27696;42.704;23.304;2023-07-31T09:14:05;4.20;;;3.70;;
42006;SDS011;27696;42.704;23.304;2023-07-31T09:16:34;5.60;;;3.13;;
42006;SDS011;27696;42.704;23.304;2023-07-31T09:18:59;3.97;;;3.55;;
42006;SDS011;27696;42.704;23.304;2023-07-31T09:21:27;3.95;;;3.40;;
42006;SDS011;27696;42.704;23.304;2023-07-31T09:23:53;14.57;;;3.40;;
42006;SDS011;27696;42.704;23.304;2023-07-31T09:26:34;4.03;;;3.10;;
42006;SDS011;27696;42.704;23.304;2023-07-31T09:29:06;4.45;;;3.40;;
42006;SDS011;27696;42.704;23.304;2023-07-31T09:31:40;3.40;;;2.95;;
42006;SDS011;27696;42.704;23.304;2023-07-31T09:34:06;5.82;;;3.50;;
42006;SDS011;27696;42.704;23.304;2023-07-31T09:36:32;4.45;;;3.50;;
42006;SDS011;27696;42.704;23.304;2023-07-31T09:39:03;3.25;;;2.97;;
42006;SDS011;27696;42.704;23.304;2023-07-31T09:41:30;4.95;;;3.00;;
42006;SDS011;27696;42.704;23.304;2023-07-31T09:43:55;3.33;;;2.78;;
42006;SDS011;27696;42.704;23.304;2023-07-31T09:46:21;2.78;;;2.58;;
42006;SDS011;27696;42.704;23.304;2023-07-31T09:48:47;3.53;;;3.22;;
42006;SDS011;27696;42.704;23.304;2023-07-31T09:51:12;2.63;;;2.42;;
42006;SDS011;27696;42.704;23.304;2023-07-31T09:53:38;4.15;;;2.50;;
42006;SDS011;27696;42.704;23.304;2023-07-31T09:56:03;2.90;;;2.10;;
42006;SDS011;27696;42.704;23.304;2023-07-31T09:58:29;3.42;;;2.40;;
42006;SDS011;27696;42.704;23.304;2023-07-31T10:00:55;3.50;;;2.30;;
42006;SDS011;27696;42.704;23.304;2023-07-31T10:03:22;7.05;;;2.42;;
42006;SDS011;27696;42.704;23.304;2023-07-31T10:05:52;4.38;;;2.22;;
42006;SDS011;27696;42.704;23.304;2023-07-31T10:08:20;5.53;;;2.58;;
42006;SDS011;27696;42.704;23.304;2023-07-31T10:10:46;2.60;;;2.30;;
42006;SDS011;27696;42.704;23.304;2023-07-31T10:13:12;3.65;;;2.05;;
42006;SDS011;27696;42.704;23.304;2023-07-31T10:15:38;4.05;;;2.50;;
42006;SDS011;27696;42.704;23.304;2023-07-31T10:18:05;4.85;;;2.50;;
42006;SDS011;27696;42.704;23.304;2023-07-31T10:20:31;4.63;;;2.00;;
42006;SDS011;27696;42.704;23.304;2023-07-31T10:22:57;2.50;;;2.30;;
42006;SDS011;27696;42.704;23.304;2023-07-31T10:25:23;2.88;;;2.05;;
42006;SDS011;27696;42.704;23.304;2023-07-31T10:27:48;2.67;;;2.25;;
42006;SDS011;27696;42.704;23.304;2023-07-31T10:30:15;3.10;;;2.10;;
42006;SDS011;27696;42.704;23.304;2023-07-31T10:32:42;2.50;;;2.28;;
42006;SDS011;27696;42.704;23.304;2023-07-31T10:35:08;4.47;;;2.22;;
42006;SDS011;27696;42.704;23.304;2023-07-31T10:37:38;3.83;;;2.42;;
42006;SDS011;27696;42.704;23.304;2023-07-31T10:42:34;3.33;;;2.08;;
42006;SDS011;27696;42.704;23.304;2023-07-31T10:48:05;2.58;;;1.90;;
42006;SDS011;27696;42.704;23.304;2023-07-31T10:50:33;2.53;;;2.33;;
42006;SDS011;27696;42.704;23.304;2023-07-31T10:53:02;1.98;;;1.83;;
42006;SDS011;27696;42.704;23.304;2023-07-31T10:57:54;2.80;;;2.10;;
42006;SDS011;27696;42.704;23.304;2023-07-31T11:00:27;2.10;;;1.90;;
42006;SDS011;27696;42.704;23.304;2023-07-31T11:02:57;2.20;;;2.00;;
42006;SDS011;27696;42.704;23.304;2023-07-31T11:05:46;2.67;;;1.58;;
42006;SDS011;27696;42.704;23.304;2023-07-31T11:08:15;1.70;;;1.60;;
42006;SDS011;27696;42.704;23.304;2023-07-31T11:10:51;2.85;;;2.33;;
42006;SDS011;27696;42.704;23.304;2023-07-31T11:13:34;1.95;;;1.80;;
42006;SDS011;27696;42.704;23.304;2023-07-31T11:16:05;2.17;;;1.77;;
42006;SDS011;27696;42.704;23.304;2023-07-31T11:18:30;5.20;;;2.35;;
42006;SDS011;27696;42.704;23.304;2023-07-31T11:20:56;4.07;;;2.70;;
42006;SDS011;27696;42.704;23.304;2023-07-31T11:23:21;3.80;;;1.85;;
42006;SDS011;27696;42.704;23.304;2023-07-31T11:25:47;2.50;;;2.30;;
42006;SDS011;27696;42.704;23.304;2023-07-31T11:28:14;3.05;;;1.65;;
42006;SDS011;27696;42.704;23.304;2023-07-31T11:30:41;3.67;;;1.63;;
42006;SDS011;27696;42.704;23.304;2023-07-31T11:33:08;2.60;;;1.77;;
42006;SDS011;27696;42.704;23.304;2023-07-31T11:35:35;2.33;;;1.90;;
42006;SDS011;27696;42.704;23.304;2023-07-31T11:38:02;2.80;;;2.40;;
42006;SDS011;27696;42.704;23.304;2023-07-31T11:40:28;4.60;;;2.45;;
42006;SDS011;27696;42.704;23.304;2023-07-31T11:43:04;3.97;;;2.60;;
42006;SDS011;27696;42.704;23.304;2023-07-31T11:45:29;4.47;;;2.55;;
42006;SDS011;27696;42.704;23.304;2023-07-31T11:47:55;3.03;;;2.78;;
42006;SDS011;27696;42.704;23.304;2023-07-31T11:50:21;4.88;;;2.60;;
42006;SDS011;27696;42.704;23.304;2023-07-31T11:52:48;3.65;;;2.50;;
42006;SDS011;27696;42.704;23.304;2023-07-31T11:55:14;2.90;;;2.70;;
42006;SDS011;27696;42.704;23.304;2023-07-31T11:57:40;2.50;;;2.30;;
42006;SDS011;27696;42.704;23.304;2023-07-31T12:00:07;3.33;;;3.00;;
42006;SDS011;27696;42.704;23.304;2023-07-31T12:02:34;5.93;;;3.30;;
42006;SDS011;27696;42.704;23.304;2023-07-31T12:05:00;7.03;;;3.67;;
42006;SDS011;27696;42.704;23.304;2023-07-31T12:07:26;4.63;;;4.25;;
42006;SDS011;27696;42.704;23.304;2023-07-31T12:09:52;4.38;;;4.07;;
42006;SDS011;27696;42.704;23.304;2023-07-31T12:12:20;4.57;;;4.18;;
42006;SDS011;27696;42.704;23.304;2023-07-31T12:14:47;4.80;;;4.40;;
42006;SDS011;27696;42.704;23.304;2023-07-31T12:17:12;6.60;;;4.50;;
42006;SDS011;27696;42.704;23.304;2023-07-31T12:19:39;5.47;;;4.45;;
42006;SDS011;27696;42.704;23.304;2023-07-31T12:22:11;5.78;;;5.15;;
42006;SDS011;27696;42.704;23.304;2023-07-31T12:24:39;5.78;;;5.00;;
42006;SDS011;27696;42.704;23.304;2023-07-31T12:27:09;9.45;;;4.82;;
42006;SDS011;27696;42.704;23.304;2023-07-31T12:29:38;5.25;;;4.85;;
42006;SDS011;27696;42.704;23.304;2023-07-31T12:32:04;5.53;;;3.88;;
42006;SDS011;27696;42.704;23.304;2023-07-31T12:34:43;4.35;;;4.03;;
42006;SDS011;27696;42.704;23.304;2023-07-31T12:37:08;4.50;;;4.10;;
42006;SDS011;27696;42.704;23.304;2023-07-31T12:39:34;4.60;;;4.20;;
42006;SDS011;27696;42.704;23.304;2023-07-31T12:41:59;5.07;;;4.60;;
42006;SDS011;27696;42.704;23.304;2023-07-31T12:44:25;4.78;;;4.35;;
42006;SDS011;27696;42.704;23.304;2023-07-31T12:46:50;5.50;;;5.00;;
42006;SDS011;27696;42.704;23.304;2023-07-31T12:49:15;5.47;;;5.07;;
42006;SDS011;27696;42.704;23.304;2023-07-31T12:51:41;5.88;;;5.28;;
42006;SDS011;27696;42.704;23.304;2023-07-31T12:54:06;6.18;;;4.95;;
42006;SDS011;27696;42.704;23.304;2023-07-31T12:56:32;6.63;;;4.70;;
42006;SDS011;27696;42.704;23.304;2023-07-31T12:58:57;9.02;;;5.82;;
42006;SDS011;27696;42.704;23.304;2023-07-31T13:01:23;6.22;;;5.63;;
42006;SDS011;27696;42.704;23.304;2023-07-31T13:03:48;5.65;;;5.18;;
42006;SDS011;27696;42.704;23.304;2023-07-31T13:06:15;5.78;;;5.15;;
42006;SDS011;27696;42.704;23.304;2023-07-31T13:08:40;5.70;;;5.20;;
42006;SDS011;27696;42.704;23.304;2023-07-31T13:11:05;6.03;;;4.70;;
42006;SDS011;27696;42.704;23.304;2023-07-31T13:13:31;5.03;;;4.50;;
42006;SDS011;27696;42.704;23.304;2023-07-31T13:15:56;5.95;;;5.32;;
42006;SDS011;27696;42.704;23.304;2023-07-31T13:18:22;5.88;;;4.72;;
42006;SDS011;27696;42.704;23.304;2023-07-31T13:20:47;4.80;;;4.40;;
42006;SDS011;27696;42.704;23.304;2023-07-31T13:23:12;4.68;;;4.38;;
42006;SDS011;27696;42.704;23.304;2023-07-31T13:25:38;4.75;;;4.35;;
42006;SDS011;27696;42.704;23.304;2023-07-31T13:28:03;5.95;;;4.10;;
42006;SDS011;27696;42.704;23.304;2023-07-31T13:30:28;4.50;;;4.10;;
42006;SDS011;27696;42.704;23.304;2023-07-31T13:32:54;4.72;;;4.00;;
42006;SDS011;27696;42.704;23.304;2023-07-31T13:35:19;4.93;;;4.15;;
42006;SDS011;27696;42.704;23.304;2023-07-31T13:37:45;7.38;;;4.43;;
42006;SDS011;27696;42.704;23.304;2023-07-31T13:40:10;14.02;;;4.05;;
42006;SDS011;27696;42.704;23.304;2023-07-31T13:42:36;6.57;;;3.97;;
42006;SDS011;27696;42.704;23.304;2023-07-31T13:45:01;5.13;;;3.35;;
42006;SDS011;27696;42.704;23.304;2023-07-31T13:47:27;3.80;;;3.50;;
42006;SDS011;27696;42.704;23.304;2023-07-31T13:49:52;4.18;;;3.88;;
42006;SDS011;27696;42.704;23.304;2023-07-31T13:52:18;5.32;;;3.88;;
42006;SDS011;27696;42.704;23.304;2023-07-31T13:54:43;4.85;;;3.28;;
42006;SDS011;27696;42.704;23.304;2023-07-31T13:57:09;4.00;;;3.47;;
42006;SDS011;27696;42.704;23.304;2023-07-31T13:59:34;7.72;;;3.80;;
42006;SDS011;27696;42.704;23.304;2023-07-31T14:01:59;3.63;;;3.10;;
42006;SDS011;27696;42.704;23.304;2023-07-31T14:04:25;6.78;;;3.65;;
42006;SDS011;27696;42.704;23.304;2023-07-31T14:06:50;4.05;;;3.75;;
42006;SDS011;27696;42.704;23.304;2023-07-31T14:09:16;4.85;;;4.45;;
42006;SDS011;27696;42.704;23.304;2023-07-31T14:11:42;3.88;;;3.58;;
42006;SDS011;27696;42.704;23.304;2023-07-31T14:14:08;3.88;;;3.58;;
42006;SDS011;27696;42.704;23.304;2023-07-31T14:16:34;4.53;;;4.13;;
42006;SDS011;27696;42.704;23.304;2023-07-31T14:19:00;7.03;;;6.43;;
42006;SDS011;27696;42.704;23.304;2023-07-31T14:21:25;7.18;;;4.10;;
42006;SDS011;27696;42.704;23.304;2023-07-31T14:23:51;3.95;;;3.65;;
42006;SDS011;27696;42.704;23.304;2023-07-31T14:26:16;4.32;;;3.92;;
42006;SDS011;27696;42.704;23.304;2023-07-31T14:28:42;3.45;;;3.25;;
42006;SDS011;27696;42.704;23.304;2023-07-31T14:31:07;4.47;;;3.63;;
42006;SDS011;27696;42.704;23.304;2023-07-31T14:33:32;3.67;;;3.35;;
42006;SDS011;27696;42.704;23.304;2023-07-31T14:35:58;3.67;;;3.38;;
42006;SDS011;27696;42.704;23.304;2023-07-31T14:38:23;4.35;;;3.92;;